Terminal Aerodrome Forecast
Issued by NWS Pocatello, ID

Home | Current Version | Previous Version | Text Only | Print | Product List | Glossary On
Versions: 1 2 3 4 5 6 7 8 9 10 11 12 13 14
000
FTUS45 KPIH 012320
TAFPIH
TAF
KPIH 012320Z 0200/0224 27010KT P6SM SCT140
     FM020200 19011KT P6SM BKN140
     FM021500 22010G20KT P6SM BKN130
     FM022000 23017G27KT P6SM FEW140=

USA.gov is the U.S. government's official web portal to all federal, state and local government web resources and services.